Aeroporto :
LOGIN :

Iscrizione | Disclaimer

   EN    FR    IT 

 










Sommario :    VFR   VFR Marginale   IFR   IFR Intensivo   IFR Molto Intensivo
Visibilità : 
Base nubi : 
>= 8 km
>= 3000ft
5 / 8 km
1000 / 3000 ft
1500m / 5 km
500 / 1000 ft
800 / 1500m
200 / 500 ft
< 800m
< 200 ft
Simboli :   Temporali  Nebbia  Neve Forte  Precipitazioni Forti  Vento > 20 kt
SIGMETs :   Varie  Temporali  Ghiacco  Turbolenza  Onda orograficha  Ceneri Vulcaniche






- Altitudine del aeroporto : -15 ft
- Codice IATA : RTM


EHRD - Rotterdam Zestienhoven

ULTIMO METAR :
  • 230355Z AUTO 17002KT 9999 NCD 04/04 Q1024 NOSIG

METARs OBSOLETI :
  • 230325Z AUTO 19001KT 9999 NCD 05/05 Q1024 NOSIG
  • 230255Z AUTO 17001KT 9999 NCD 05/05 Q1024 NOSIG
  • 230225Z AUTO 20002KT 9999 NCD 05/05 Q1024 NOSIG
  • 230155Z AUTO 19002KT 9999 NCD 06/04 Q1024 NOSIG
  • 230125Z AUTO VRB01KT 9999 SCT034 BKN042 06/05 Q1024 NOSIG

TAF TAF EHRD
Valido dal 23 a 00 ore il 24 a 06 ore UTC


222310Z 2300/2406 20005KT 9999 SCT030



MetMap, La meteo Aeronautica in un colpo d'occhio ! - Copyright ORBIFLY Dicembre 2007 - Disclaimer

ORBIFLY MET'MAP TEAM :

Programmazione e sviluppo : Alexandra Zaïnal
Concezione : Baudouin d'Aumeries
Aiuto per la programmazione : Marc-Olivier Méhu
Supporto tecnico e logistico : Manuel Goepfert
Aiuto per la traduzione : Arnaldo La Scala

Contatto : metmap@orbifly.com




FONTI E CREDITI :

   NOAA